sensor_id;sensor_type;location;lat;lon;timestamp;P1;durP1;ratioP1;P2;durP2;ratioP2
37641;SDS011;23486;51.956;5.888;2023-04-16T00:02:13;23.25;;;5.97;;
37641;SDS011;23486;51.956;5.888;2023-04-16T00:04:42;16.67;;;6.43;;
37641;SDS011;23486;51.956;5.888;2023-04-16T00:07:10;19.25;;;8.60;;
37641;SDS011;23486;51.956;5.888;2023-04-16T00:09:36;23.33;;;6.88;;
37641;SDS011;23486;51.956;5.888;2023-04-16T00:12:01;19.42;;;6.63;;
37641;SDS011;23486;51.956;5.888;2023-04-16T00:14:28;27.30;;;7.60;;
37641;SDS011;23486;51.956;5.888;2023-04-16T00:16:54;27.55;;;8.20;;
37641;SDS011;23486;51.956;5.888;2023-04-16T00:19:19;20.52;;;7.38;;
37641;SDS011;23486;51.956;5.888;2023-04-16T00:21:45;17.77;;;6.55;;
37641;SDS011;23486;51.956;5.888;2023-04-16T00:24:11;27.35;;;9.20;;
37641;SDS011;23486;51.956;5.888;2023-04-16T00:26:36;26.65;;;9.43;;
37641;SDS011;23486;51.956;5.888;2023-04-16T00:29:02;22.00;;;7.13;;
37641;SDS011;23486;51.956;5.888;2023-04-16T00:31:28;33.83;;;9.60;;
37641;SDS011;23486;51.956;5.888;2023-04-16T00:33:54;23.98;;;9.15;;
37641;SDS011;23486;51.956;5.888;2023-04-16T00:36:21;32.50;;;11.93;;
37641;SDS011;23486;51.956;5.888;2023-04-16T00:38:47;22.17;;;8.82;;
37641;SDS011;23486;51.956;5.888;2023-04-16T00:41:13;27.52;;;10.60;;
37641;SDS011;23486;51.956;5.888;2023-04-16T00:43:38;26.40;;;8.60;;
37641;SDS011;23486;51.956;5.888;2023-04-16T00:46:04;28.83;;;10.30;;
37641;SDS011;23486;51.956;5.888;2023-04-16T00:51:08;31.13;;;12.05;;
37641;SDS011;23486;51.956;5.888;2023-04-16T00:53:34;29.95;;;10.50;;
37641;SDS011;23486;51.956;5.888;2023-04-16T00:56:01;28.88;;;11.85;;
37641;SDS011;23486;51.956;5.888;2023-04-16T00:58:28;35.88;;;10.60;;
37641;SDS011;23486;51.956;5.888;2023-04-16T01:00:57;31.15;;;9.45;;
37641;SDS011;23486;51.956;5.888;2023-04-16T01:03:36;27.20;;;11.13;;
37641;SDS011;23486;51.956;5.888;2023-04-16T01:06:06;35.83;;;12.18;;
37641;SDS011;23486;51.956;5.888;2023-04-16T01:08:32;19.83;;;9.77;;
37641;SDS011;23486;51.956;5.888;2023-04-16T01:11:00;25.70;;;10.32;;
37641;SDS011;23486;51.956;5.888;2023-04-16T01:13:26;25.85;;;10.73;;
37641;SDS011;23486;51.956;5.888;2023-04-16T01:15:52;33.58;;;11.63;;
37641;SDS011;23486;51.956;5.888;2023-04-16T01:18:18;39.95;;;14.00;;
37641;SDS011;23486;51.956;5.888;2023-04-16T01:20:47;33.13;;;12.90;;
37641;SDS011;23486;51.956;5.888;2023-04-16T01:23:14;32.85;;;12.50;;
37641;SDS011;23486;51.956;5.888;2023-04-16T01:25:42;32.00;;;13.30;;
37641;SDS011;23486;51.956;5.888;2023-04-16T01:28:08;28.52;;;13.23;;
37641;SDS011;23486;51.956;5.888;2023-04-16T01:30:33;28.80;;;13.20;;
37641;SDS011;23486;51.956;5.888;2023-04-16T01:32:59;32.80;;;13.75;;
37641;SDS011;23486;51.956;5.888;2023-04-16T01:35:25;39.60;;;13.73;;
37641;SDS011;23486;51.956;5.888;2023-04-16T01:37:51;36.47;;;15.18;;
37641;SDS011;23486;51.956;5.888;2023-04-16T01:40:16;33.20;;;12.70;;
37641;SDS011;23486;51.956;5.888;2023-04-16T01:42:42;33.30;;;14.25;;
37641;SDS011;23486;51.956;5.888;2023-04-16T01:45:08;47.83;;;18.25;;
37641;SDS011;23486;51.956;5.888;2023-04-16T01:47:35;46.85;;;17.35;;
37641;SDS011;23486;51.956;5.888;2023-04-16T01:50:01;47.47;;;17.58;;
37641;SDS011;23486;51.956;5.888;2023-04-16T01:52:27;45.63;;;15.80;;
37641;SDS011;23486;51.956;5.888;2023-04-16T01:54:53;39.78;;;14.63;;
37641;SDS011;23486;51.956;5.888;2023-04-16T01:57:19;47.05;;;16.75;;
37641;SDS011;23486;51.956;5.888;2023-04-16T01:59:44;44.80;;;16.20;;
37641;SDS011;23486;51.956;5.888;2023-04-16T02:02:10;35.00;;;14.00;;
37641;SDS011;23486;51.956;5.888;2023-04-16T02:04:37;44.95;;;15.95;;
37641;SDS011;23486;51.956;5.888;2023-04-16T02:07:06;37.67;;;16.08;;
37641;SDS011;23486;51.956;5.888;2023-04-16T02:09:35;44.28;;;17.73;;
37641;SDS011;23486;51.956;5.888;2023-04-16T02:12:02;58.55;;;20.58;;
37641;SDS011;23486;51.956;5.888;2023-04-16T02:14:28;49.88;;;20.05;;
37641;SDS011;23486;51.956;5.888;2023-04-16T02:16:54;54.97;;;22.13;;
37641;SDS011;23486;51.956;5.888;2023-04-16T02:19:20;49.00;;;19.02;;
37641;SDS011;23486;51.956;5.888;2023-04-16T02:21:46;42.72;;;16.50;;
37641;SDS011;23486;51.956;5.888;2023-04-16T02:24:12;48.30;;;18.77;;
37641;SDS011;23486;51.956;5.888;2023-04-16T02:26:38;49.20;;;20.38;;
37641;SDS011;23486;51.956;5.888;2023-04-16T02:29:03;38.42;;;18.80;;
37641;SDS011;23486;51.956;5.888;2023-04-16T02:31:29;51.95;;;22.73;;
37641;SDS011;23486;51.956;5.888;2023-04-16T02:33:55;56.03;;;23.88;;
37641;SDS011;23486;51.956;5.888;2023-04-16T02:36:21;43.42;;;17.85;;
37641;SDS011;23486;51.956;5.888;2023-04-16T02:38:47;37.20;;;16.50;;
37641;SDS011;23486;51.956;5.888;2023-04-16T02:41:12;47.03;;;18.23;;
37641;SDS011;23486;51.956;5.888;2023-04-16T02:43:38;45.03;;;21.27;;
37641;SDS011;23486;51.956;5.888;2023-04-16T02:46:04;41.67;;;19.38;;
37641;SDS011;23486;51.956;5.888;2023-04-16T02:48:30;51.95;;;21.95;;
37641;SDS011;23486;51.956;5.888;2023-04-16T02:50:56;50.83;;;22.58;;
37641;SDS011;23486;51.956;5.888;2023-04-16T02:53:21;46.10;;;19.35;;
37641;SDS011;23486;51.956;5.888;2023-04-16T02:55:50;38.60;;;18.55;;
37641;SDS011;23486;51.956;5.888;2023-04-16T02:58:19;49.60;;;18.80;;
37641;SDS011;23486;51.956;5.888;2023-04-16T03:00:46;50.92;;;21.65;;
37641;SDS011;23486;51.956;5.888;2023-04-16T03:03:11;49.55;;;18.48;;
37641;SDS011;23486;51.956;5.888;2023-04-16T03:05:37;40.47;;;17.02;;
37641;SDS011;23486;51.956;5.888;2023-04-16T03:08:03;46.33;;;17.25;;
37641;SDS011;23486;51.956;5.888;2023-04-16T03:10:29;54.15;;;21.63;;
37641;SDS011;23486;51.956;5.888;2023-04-16T03:12:55;49.25;;;21.45;;
37641;SDS011;23486;51.956;5.888;2023-04-16T03:15:20;49.25;;;21.55;;
37641;SDS011;23486;51.956;5.888;2023-04-16T03:17:46;50.10;;;20.05;;
37641;SDS011;23486;51.956;5.888;2023-04-16T03:20:11;42.28;;;18.08;;
37641;SDS011;23486;51.956;5.888;2023-04-16T03:22:38;52.35;;;22.00;;
37641;SDS011;23486;51.956;5.888;2023-04-16T03:25:04;47.95;;;22.48;;
37641;SDS011;23486;51.956;5.888;2023-04-16T03:27:32;39.40;;;19.20;;
37641;SDS011;23486;51.956;5.888;2023-04-16T03:29:58;31.50;;;17.02;;
37641;SDS011;23486;51.956;5.888;2023-04-16T03:32:24;50.92;;;22.27;;
37641;SDS011;23486;51.956;5.888;2023-04-16T03:34:50;46.45;;;20.90;;
37641;SDS011;23486;51.956;5.888;2023-04-16T03:37:16;39.10;;;17.85;;
37641;SDS011;23486;51.956;5.888;2023-04-16T03:39:41;43.05;;;19.70;;
37641;SDS011;23486;51.956;5.888;2023-04-16T03:42:07;53.33;;;23.42;;
37641;SDS011;23486;51.956;5.888;2023-04-16T03:44:33;43.72;;;19.77;;
37641;SDS011;23486;51.956;5.888;2023-04-16T03:46:58;46.35;;;20.00;;
37641;SDS011;23486;51.956;5.888;2023-04-16T03:49:25;40.20;;;18.17;;
37641;SDS011;23486;51.956;5.888;2023-04-16T03:51:56;53.28;;;21.73;;
37641;SDS011;23486;51.956;5.888;2023-04-16T03:54:22;50.58;;;21.67;;
37641;SDS011;23486;51.956;5.888;2023-04-16T03:56:47;46.05;;;21.58;;
37641;SDS011;23486;51.956;5.888;2023-04-16T03:59:16;43.40;;;20.50;;
37641;SDS011;23486;51.956;5.888;2023-04-16T04:01:44;40.72;;;16.67;;
37641;SDS011;23486;51.956;5.888;2023-04-16T04:04:10;37.53;;;16.40;;
37641;SDS011;23486;51.956;5.888;2023-04-16T04:06:36;50.55;;;22.77;;
37641;SDS011;23486;51.956;5.888;2023-04-16T04:09:01;49.97;;;22.67;;
37641;SDS011;23486;51.956;5.888;2023-04-16T04:11:27;57.53;;;25.77;;
37641;SDS011;23486;51.956;5.888;2023-04-16T04:13:53;51.53;;;21.60;;
37641;SDS011;23486;51.956;5.888;2023-04-16T04:16:18;39.35;;;19.02;;
37641;SDS011;23486;51.956;5.888;2023-04-16T04:18:44;40.38;;;17.45;;
37641;SDS011;23486;51.956;5.888;2023-04-16T04:21:10;42.33;;;20.95;;
37641;SDS011;23486;51.956;5.888;2023-04-16T04:23:36;52.40;;;23.15;;
37641;SDS011;23486;51.956;5.888;2023-04-16T04:26:02;54.17;;;24.50;;
37641;SDS011;23486;51.956;5.888;2023-04-16T04:28:29;47.50;;;22.10;;
37641;SDS011;23486;51.956;5.888;2023-04-16T04:30:59;53.80;;;24.55;;
37641;SDS011;23486;51.956;5.888;2023-04-16T04:33:25;61.47;;;26.60;;
37641;SDS011;23486;51.956;5.888;2023-04-16T04:35:51;54.67;;;22.80;;
37641;SDS011;23486;51.956;5.888;2023-04-16T04:38:17;46.67;;;20.85;;
37641;SDS011;23486;51.956;5.888;2023-04-16T04:40:45;50.30;;;22.40;;
37641;SDS011;23486;51.956;5.888;2023-04-16T04:43:14;61.05;;;26.00;;
37641;SDS011;23486;51.956;5.888;2023-04-16T04:45:40;61.28;;;26.08;;
37641;SDS011;23486;51.956;5.888;2023-04-16T04:48:05;55.55;;;24.75;;
37641;SDS011;23486;51.956;5.888;2023-04-16T04:50:31;50.38;;;23.58;;
37641;SDS011;23486;51.956;5.888;2023-04-16T04:52:56;52.30;;;22.08;;
37641;SDS011;23486;51.956;5.888;2023-04-16T04:55:22;52.72;;;23.42;;
37641;SDS011;23486;51.956;5.888;2023-04-16T04:57:48;56.47;;;25.23;;
37641;SDS011;23486;51.956;5.888;2023-04-16T05:00:14;62.50;;;26.08;;
37641;SDS011;23486;51.956;5.888;2023-04-16T05:02:39;64.15;;;26.48;;
37641;SDS011;23486;51.956;5.888;2023-04-16T05:05:05;64.97;;;26.98;;
37641;SDS011;23486;51.956;5.888;2023-04-16T05:07:31;59.67;;;25.38;;
37641;SDS011;23486;51.956;5.888;2023-04-16T05:09:57;54.17;;;21.30;;
37641;SDS011;23486;51.956;5.888;2023-04-16T05:12:22;60.28;;;24.60;;
37641;SDS011;23486;51.956;5.888;2023-04-16T05:14:48;68.03;;;27.90;;
37641;SDS011;23486;51.956;5.888;2023-04-16T05:17:13;60.60;;;24.90;;
37641;SDS011;23486;51.956;5.888;2023-04-16T05:19:39;71.03;;;28.52;;
37641;SDS011;23486;51.956;5.888;2023-04-16T05:22:05;65.00;;;26.27;;
37641;SDS011;23486;51.956;5.888;2023-04-16T05:24:30;62.55;;;25.65;;
37641;SDS011;23486;51.956;5.888;2023-04-16T05:26:56;60.72;;;26.83;;
37641;SDS011;23486;51.956;5.888;2023-04-16T05:29:22;71.47;;;28.63;;
37641;SDS011;23486;51.956;5.888;2023-04-16T05:31:47;55.60;;;26.00;;
37641;SDS011;23486;51.956;5.888;2023-04-16T05:34:13;64.18;;;27.85;;
37641;SDS011;23486;51.956;5.888;2023-04-16T05:36:39;67.70;;;28.67;;
37641;SDS011;23486;51.956;5.888;2023-04-16T05:39:05;59.25;;;28.67;;
37641;SDS011;23486;51.956;5.888;2023-04-16T05:41:31;66.72;;;28.00;;
37641;SDS011;23486;51.956;5.888;2023-04-16T05:43:57;70.05;;;30.10;;
37641;SDS011;23486;51.956;5.888;2023-04-16T05:46:23;60.55;;;25.73;;
37641;SDS011;23486;51.956;5.888;2023-04-16T05:48:49;58.35;;;23.80;;
37641;SDS011;23486;51.956;5.888;2023-04-16T05:51:20;54.63;;;22.63;;
37641;SDS011;23486;51.956;5.888;2023-04-16T05:53:48;64.80;;;28.63;;
37641;SDS011;23486;51.956;5.888;2023-04-16T05:56:14;63.28;;;28.10;;
37641;SDS011;23486;51.956;5.888;2023-04-16T05:58:39;42.45;;;23.65;;
37641;SDS011;23486;51.956;5.888;2023-04-16T06:01:05;53.67;;;26.00;;
37641;SDS011;23486;51.956;5.888;2023-04-16T06:03:31;50.15;;;24.30;;
37641;SDS011;23486;51.956;5.888;2023-04-16T06:05:56;46.15;;;24.02;;
37641;SDS011;23486;51.956;5.888;2023-04-16T06:08:22;48.67;;;23.45;;
37641;SDS011;23486;51.956;5.888;2023-04-16T06:10:48;44.15;;;21.23;;
37641;SDS011;23486;51.956;5.888;2023-04-16T06:13:13;43.63;;;22.38;;
37641;SDS011;23486;51.956;5.888;2023-04-16T06:15:39;46.42;;;23.08;;
37641;SDS011;23486;51.956;5.888;2023-04-16T06:18:04;37.85;;;20.77;;
37641;SDS011;23486;51.956;5.888;2023-04-16T06:20:30;37.20;;;19.15;;
37641;SDS011;23486;51.956;5.888;2023-04-16T06:22:56;35.78;;;17.58;;
37641;SDS011;23486;51.956;5.888;2023-04-16T06:25:21;38.25;;;19.27;;
37641;SDS011;23486;51.956;5.888;2023-04-16T06:27:47;33.10;;;17.95;;
37641;SDS011;23486;51.956;5.888;2023-04-16T06:30:14;36.28;;;19.38;;
37641;SDS011;23486;51.956;5.888;2023-04-16T06:32:43;36.50;;;18.67;;
37641;SDS011;23486;51.956;5.888;2023-04-16T06:35:10;41.13;;;19.17;;
37641;SDS011;23486;51.956;5.888;2023-04-16T06:37:36;37.58;;;19.42;;
37641;SDS011;23486;51.956;5.888;2023-04-16T06:40:02;40.70;;;17.60;;
37641;SDS011;23486;51.956;5.888;2023-04-16T06:42:28;38.53;;;17.20;;
37641;SDS011;23486;51.956;5.888;2023-04-16T06:44:54;34.83;;;18.95;;
37641;SDS011;23486;51.956;5.888;2023-04-16T06:47:19;38.22;;;21.20;;
37641;SDS011;23486;51.956;5.888;2023-04-16T06:49:45;40.30;;;19.65;;
37641;SDS011;23486;51.956;5.888;2023-04-16T06:52:11;30.50;;;16.45;;
37641;SDS011;23486;51.956;5.888;2023-04-16T06:54:36;34.63;;;16.63;;
37641;SDS011;23486;51.956;5.888;2023-04-16T06:57:02;34.47;;;18.52;;
37641;SDS011;23486;51.956;5.888;2023-04-16T06:59:28;47.65;;;20.45;;
37641;SDS011;23486;51.956;5.888;2023-04-16T07:01:53;38.85;;;20.42;;
37641;SDS011;23486;51.956;5.888;2023-04-16T07:04:21;33.40;;;18.20;;
37641;SDS011;23486;51.956;5.888;2023-04-16T07:06:47;35.83;;;20.00;;
37641;SDS011;23486;51.956;5.888;2023-04-16T07:09:13;34.17;;;18.52;;
37641;SDS011;23486;51.956;5.888;2023-04-16T07:11:38;33.92;;;18.02;;
37641;SDS011;23486;51.956;5.888;2023-04-16T07:14:04;36.72;;;19.10;;
37641;SDS011;23486;51.956;5.888;2023-04-16T07:16:30;34.15;;;19.27;;
37641;SDS011;23486;51.956;5.888;2023-04-16T07:18:56;37.42;;;20.23;;
37641;SDS011;23486;51.956;5.888;2023-04-16T07:21:21;28.88;;;17.42;;
37641;SDS011;23486;51.956;5.888;2023-04-16T07:23:47;30.10;;;14.95;;
37641;SDS011;23486;51.956;5.888;2023-04-16T07:26:12;33.13;;;17.30;;
37641;SDS011;23486;51.956;5.888;2023-04-16T07:28:38;31.25;;;17.38;;
37641;SDS011;23486;51.956;5.888;2023-04-16T07:31:03;34.60;;;19.00;;
37641;SDS011;23486;51.956;5.888;2023-04-16T07:33:29;33.47;;;18.00;;
37641;SDS011;23486;51.956;5.888;2023-04-16T07:35:55;25.98;;;15.88;;
37641;SDS011;23486;51.956;5.888;2023-04-16T07:38:20;28.15;;;16.02;;
37641;SDS011;23486;51.956;5.888;2023-04-16T07:40:46;34.42;;;18.10;;
37641;SDS011;23486;51.956;5.888;2023-04-16T07:43:12;36.78;;;19.45;;
37641;SDS011;23486;51.956;5.888;2023-04-16T07:45:39;28.15;;;17.67;;
37641;SDS011;23486;51.956;5.888;2023-04-16T07:48:04;29.45;;;15.90;;
37641;SDS011;23486;51.956;5.888;2023-04-16T07:50:30;25.38;;;15.05;;
37641;SDS011;23486;51.956;5.888;2023-04-16T07:52:56;33.75;;;19.30;;
37641;SDS011;23486;51.956;5.888;2023-04-16T07:55:21;26.70;;;16.38;;
37641;SDS011;23486;51.956;5.888;2023-04-16T07:57:47;28.15;;;16.17;;
37641;SDS011;23486;51.956;5.888;2023-04-16T08:00:13;34.85;;;19.88;;
37641;SDS011;23486;51.956;5.888;2023-04-16T08:02:38;33.20;;;17.85;;
37641;SDS011;23486;51.956;5.888;2023-04-16T08:05:05;33.50;;;19.60;;
37641;SDS011;23486;51.956;5.888;2023-04-16T08:07:31;33.58;;;19.95;;
37641;SDS011;23486;51.956;5.888;2023-04-16T08:09:56;33.85;;;20.13;;
37641;SDS011;23486;51.956;5.888;2023-04-16T08:12:22;30.23;;;16.77;;
37641;SDS011;23486;51.956;5.888;2023-04-16T08:14:48;32.95;;;18.75;;
37641;SDS011;23486;51.956;5.888;2023-04-16T08:17:13;35.72;;;20.58;;
37641;SDS011;23486;51.956;5.888;2023-04-16T08:19:40;30.05;;;18.58;;
37641;SDS011;23486;51.956;5.888;2023-04-16T08:22:07;31.08;;;17.23;;
37641;SDS011;23486;51.956;5.888;2023-04-16T08:24:33;37.58;;;19.52;;
37641;SDS011;23486;51.956;5.888;2023-04-16T08:26:58;29.05;;;16.98;;
37641;SDS011;23486;51.956;5.888;2023-04-16T08:29:24;33.35;;;17.98;;
37641;SDS011;23486;51.956;5.888;2023-04-16T08:31:50;27.63;;;16.73;;
37641;SDS011;23486;51.956;5.888;2023-04-16T08:34:17;36.42;;;19.30;;
37641;SDS011;23486;51.956;5.888;2023-04-16T08:36:43;35.13;;;16.95;;
37641;SDS011;23486;51.956;5.888;2023-04-16T08:39:10;34.33;;;18.80;;
37641;SDS011;23486;51.956;5.888;2023-04-16T08:41:37;35.35;;;19.45;;
37641;SDS011;23486;51.956;5.888;2023-04-16T08:44:10;36.35;;;19.60;;
37641;SDS011;23486;51.956;5.888;2023-04-16T08:46:45;36.03;;;19.30;;
37641;SDS011;23486;51.956;5.888;2023-04-16T08:49:12;34.33;;;18.00;;
37641;SDS011;23486;51.956;5.888;2023-04-16T08:51:42;34.13;;;18.10;;
37641;SDS011;23486;51.956;5.888;2023-04-16T08:54:13;36.80;;;19.58;;
37641;SDS011;23486;51.956;5.888;2023-04-16T08:56:44;35.40;;;19.08;;
37641;SDS011;23486;51.956;5.888;2023-04-16T08:59:11;36.40;;;21.00;;
37641;SDS011;23486;51.956;5.888;2023-04-16T09:01:36;40.78;;;22.33;;
37641;SDS011;23486;51.956;5.888;2023-04-16T09:04:05;38.67;;;19.70;;
37641;SDS011;23486;51.956;5.888;2023-04-16T09:06:31;38.00;;;20.60;;
37641;SDS011;23486;51.956;5.888;2023-04-16T09:08:58;38.65;;;19.40;;
37641;SDS011;23486;51.956;5.888;2023-04-16T09:11:28;34.85;;;18.77;;
37641;SDS011;23486;51.956;5.888;2023-04-16T09:13:54;40.38;;;21.58;;
37641;SDS011;23486;51.956;5.888;2023-04-16T09:16:21;46.65;;;24.48;;
37641;SDS011;23486;51.956;5.888;2023-04-16T09:18:48;40.53;;;20.33;;
37641;SDS011;23486;51.956;5.888;2023-04-16T09:21:15;41.30;;;20.58;;
37641;SDS011;23486;51.956;5.888;2023-04-16T09:23:41;41.08;;;22.25;;
37641;SDS011;23486;51.956;5.888;2023-04-16T09:26:07;45.75;;;22.02;;
37641;SDS011;23486;51.956;5.888;2023-04-16T09:31:10;49.25;;;24.83;;
37641;SDS011;23486;51.956;5.888;2023-04-16T09:33:37;41.92;;;22.60;;
37641;SDS011;23486;51.956;5.888;2023-04-16T09:36:04;41.28;;;21.55;;
37641;SDS011;23486;51.956;5.888;2023-04-16T09:38:46;39.15;;;21.58;;
37641;SDS011;23486;51.956;5.888;2023-04-16T09:41:16;41.08;;;22.63;;
37641;SDS011;23486;51.956;5.888;2023-04-16T09:43:55;41.35;;;23.02;;
37641;SDS011;23486;51.956;5.888;2023-04-16T09:46:21;40.90;;;21.10;;
37641;SDS011;23486;51.956;5.888;2023-04-16T09:48:48;40.70;;;21.17;;
37641;SDS011;23486;51.956;5.888;2023-04-16T09:51:13;41.08;;;22.60;;
37641;SDS011;23486;51.956;5.888;2023-04-16T09:53:39;43.78;;;22.80;;
37641;SDS011;23486;51.956;5.888;2023-04-16T09:56:05;38.63;;;20.38;;
37641;SDS011;23486;51.956;5.888;2023-04-16T09:58:31;37.95;;;20.75;;
37641;SDS011;23486;51.956;5.888;2023-04-16T10:03:28;33.00;;;19.63;;
37641;SDS011;23486;51.956;5.888;2023-04-16T10:05:58;41.30;;;21.38;;
37641;SDS011;23486;51.956;5.888;2023-04-16T10:08:30;40.50;;;21.48;;
37641;SDS011;23486;51.956;5.888;2023-04-16T10:10:56;39.88;;;21.63;;
37641;SDS011;23486;51.956;5.888;2023-04-16T10:13:22;35.33;;;19.77;;
37641;SDS011;23486;51.956;5.888;2023-04-16T10:15:49;40.40;;;20.95;;
37641;SDS011;23486;51.956;5.888;2023-04-16T10:18:16;40.05;;;20.38;;
37641;SDS011;23486;51.956;5.888;2023-04-16T10:20:42;37.13;;;20.85;;
37641;SDS011;23486;51.956;5.888;2023-04-16T10:23:08;33.55;;;19.30;;
37641;SDS011;23486;51.956;5.888;2023-04-16T10:25:34;37.08;;;19.67;;
37641;SDS011;23486;51.956;5.888;2023-04-16T10:28:00;37.08;;;19.05;;
37641;SDS011;23486;51.956;5.888;2023-04-16T10:30:26;26.60;;;16.50;;
37641;SDS011;23486;51.956;5.888;2023-04-16T10:32:52;36.65;;;19.88;;
37641;SDS011;23486;51.956;5.888;2023-04-16T10:35:18;32.78;;;18.27;;
37641;SDS011;23486;51.956;5.888;2023-04-16T10:37:45;33.35;;;17.50;;
37641;SDS011;23486;51.956;5.888;2023-04-16T10:40:21;38.58;;;19.23;;
37641;SDS011;23486;51.956;5.888;2023-04-16T10:42:58;26.88;;;17.17;;
37641;SDS011;23486;51.956;5.888;2023-04-16T10:45:33;36.47;;;19.02;;
37641;SDS011;23486;51.956;5.888;2023-04-16T10:48:05;33.95;;;17.55;;
37641;SDS011;23486;51.956;5.888;2023-04-16T10:50:36;34.95;;;18.38;;
37641;SDS011;23486;51.956;5.888;2023-04-16T10:58:33;30.38;;;18.17;;
37641;SDS011;23486;51.956;5.888;2023-04-16T11:01:09;31.00;;;17.35;;
37641;SDS011;23486;51.956;5.888;2023-04-16T11:03:41;29.90;;;17.60;;
37641;SDS011;23486;51.956;5.888;2023-04-16T11:06:14;29.10;;;16.77;;
37641;SDS011;23486;51.956;5.888;2023-04-16T11:08:42;30.45;;;18.15;;
37641;SDS011;23486;51.956;5.888;2023-04-16T11:11:10;30.48;;;17.48;;
37641;SDS011;23486;51.956;5.888;2023-04-16T11:13:36;34.28;;;18.40;;
37641;SDS011;23486;51.956;5.888;2023-04-16T11:16:02;33.25;;;18.38;;
37641;SDS011;23486;51.956;5.888;2023-04-16T11:18:29;31.75;;;18.40;;
37641;SDS011;23486;51.956;5.888;2023-04-16T11:20:57;26.58;;;15.60;;
37641;SDS011;23486;51.956;5.888;2023-04-16T11:23:23;29.90;;;16.38;;
37641;SDS011;23486;51.956;5.888;2023-04-16T11:25:49;31.63;;;18.35;;
37641;SDS011;23486;51.956;5.888;2023-04-16T11:28:20;27.80;;;17.05;;
37641;SDS011;23486;51.956;5.888;2023-04-16T11:30:56;37.30;;;17.58;;
37641;SDS011;23486;51.956;5.888;2023-04-16T11:33:22;27.20;;;16.50;;
37641;SDS011;23486;51.956;5.888;2023-04-16T11:35:56;30.70;;;17.20;;
37641;SDS011;23486;51.956;5.888;2023-04-16T11:38:31;29.23;;;16.25;;
37641;SDS011;23486;51.956;5.888;2023-04-16T11:41:00;30.52;;;15.25;;
37641;SDS011;23486;51.956;5.888;2023-04-16T11:43:26;21.90;;;13.57;;
37641;SDS011;23486;51.956;5.888;2023-04-16T11:45:55;36.92;;;17.27;;
37641;SDS011;23486;51.956;5.888;2023-04-16T11:48:47;24.55;;;13.38;;
37641;SDS011;23486;51.956;5.888;2023-04-16T11:51:14;27.52;;;15.52;;
37641;SDS011;23486;51.956;5.888;2023-04-16T11:53:47;26.35;;;16.75;;
37641;SDS011;23486;51.956;5.888;2023-04-16T11:56:33;30.35;;;15.88;;
37641;SDS011;23486;51.956;5.888;2023-04-16T12:01:33;29.05;;;14.80;;
37641;SDS011;23486;51.956;5.888;2023-04-16T12:04:00;26.42;;;15.75;;
37641;SDS011;23486;51.956;5.888;2023-04-16T12:06:27;25.67;;;14.60;;
37641;SDS011;23486;51.956;5.888;2023-04-16T12:08:52;26.98;;;15.02;;
37641;SDS011;23486;51.956;5.888;2023-04-16T12:11:18;25.35;;;15.35;;
37641;SDS011;23486;51.956;5.888;2023-04-16T12:16:36;24.92;;;14.43;;
37641;SDS011;23486;51.956;5.888;2023-04-16T12:19:02;26.65;;;16.10;;
37641;SDS011;23486;51.956;5.888;2023-04-16T12:21:38;27.65;;;14.68;;
37641;SDS011;23486;51.956;5.888;2023-04-16T12:24:11;26.35;;;13.98;;
37641;SDS011;23486;51.956;5.888;2023-04-16T12:26:39;23.77;;;14.00;;
37641;SDS011;23486;51.956;5.888;2023-04-16T12:29:15;30.80;;;16.95;;
37641;SDS011;23486;51.956;5.888;2023-04-16T12:31:42;28.70;;;15.65;;
37641;SDS011;23486;51.956;5.888;2023-04-16T12:34:11;28.52;;;15.80;;
37641;SDS011;23486;51.956;5.888;2023-04-16T12:36:37;34.10;;;16.10;;
37641;SDS011;23486;51.956;5.888;2023-04-16T12:39:03;21.23;;;13.63;;
37641;SDS011;23486;51.956;5.888;2023-04-16T12:41:29;21.35;;;12.15;;
37641;SDS011;23486;51.956;5.888;2023-04-16T12:46:32;24.45;;;14.25;;
37641;SDS011;23486;51.956;5.888;2023-04-16T12:49:04;19.33;;;12.90;;
37641;SDS011;23486;51.956;5.888;2023-04-16T12:51:31;25.15;;;13.48;;
37641;SDS011;23486;51.956;5.888;2023-04-16T12:53:57;27.73;;;14.32;;
37641;SDS011;23486;51.956;5.888;2023-04-16T12:56:23;26.02;;;15.13;;
37641;SDS011;23486;51.956;5.888;2023-04-16T12:58:49;31.40;;;16.48;;
37641;SDS011;23486;51.956;5.888;2023-04-16T13:01:16;24.48;;;14.20;;
37641;SDS011;23486;51.956;5.888;2023-04-16T13:03:42;23.77;;;12.88;;
37641;SDS011;23486;51.956;5.888;2023-04-16T13:06:08;26.65;;;13.75;;
37641;SDS011;23486;51.956;5.888;2023-04-16T13:08:33;25.17;;;13.60;;
37641;SDS011;23486;51.956;5.888;2023-04-16T13:10:59;33.95;;;15.60;;
37641;SDS011;23486;51.956;5.888;2023-04-16T13:13:25;28.73;;;16.45;;
37641;SDS011;23486;51.956;5.888;2023-04-16T13:15:50;25.95;;;15.00;;
37641;SDS011;23486;51.956;5.888;2023-04-16T13:18:16;24.73;;;14.02;;
37641;SDS011;23486;51.956;5.888;2023-04-16T13:20:42;26.17;;;13.55;;
37641;SDS011;23486;51.956;5.888;2023-04-16T13:23:07;28.08;;;15.80;;
37641;SDS011;23486;51.956;5.888;2023-04-16T13:25:33;26.88;;;15.60;;
37641;SDS011;23486;51.956;5.888;2023-04-16T13:27:59;27.45;;;14.00;;
37641;SDS011;23486;51.956;5.888;2023-04-16T13:30:25;25.52;;;15.18;;
37641;SDS011;23486;51.956;5.888;2023-04-16T13:32:53;24.67;;;14.18;;
37641;SDS011;23486;51.956;5.888;2023-04-16T13:35:19;24.65;;;14.60;;
37641;SDS011;23486;51.956;5.888;2023-04-16T13:37:44;24.38;;;14.82;;
37641;SDS011;23486;51.956;5.888;2023-04-16T13:40:10;25.00;;;14.27;;
37641;SDS011;23486;51.956;5.888;2023-04-16T13:42:36;26.35;;;14.75;;
37641;SDS011;23486;51.956;5.888;2023-04-16T13:45:02;24.90;;;14.55;;
37641;SDS011;23486;51.956;5.888;2023-04-16T13:47:30;24.42;;;13.88;;
37641;SDS011;23486;51.956;5.888;2023-04-16T13:49:56;21.92;;;13.18;;
37641;SDS011;23486;51.956;5.888;2023-04-16T13:52:22;26.13;;;14.32;;
37641;SDS011;23486;51.956;5.888;2023-04-16T13:54:47;27.38;;;15.30;;
37641;SDS011;23486;51.956;5.888;2023-04-16T13:57:13;27.55;;;13.70;;
37641;SDS011;23486;51.956;5.888;2023-04-16T13:59:38;23.88;;;14.27;;
37641;SDS011;23486;51.956;5.888;2023-04-16T14:02:04;28.48;;;15.93;;
37641;SDS011;23486;51.956;5.888;2023-04-16T14:04:30;25.95;;;15.48;;
37641;SDS011;23486;51.956;5.888;2023-04-16T14:06:55;23.27;;;13.88;;
37641;SDS011;23486;51.956;5.888;2023-04-16T14:09:21;21.92;;;14.40;;
37641;SDS011;23486;51.956;5.888;2023-04-16T14:11:47;24.17;;;14.20;;
37641;SDS011;23486;51.956;5.888;2023-04-16T14:14:12;19.15;;;11.88;;
37641;SDS011;23486;51.956;5.888;2023-04-16T14:16:38;21.42;;;14.20;;
37641;SDS011;23486;51.956;5.888;2023-04-16T14:19:04;24.63;;;12.95;;
37641;SDS011;23486;51.956;5.888;2023-04-16T14:21:29;24.30;;;13.48;;
37641;SDS011;23486;51.956;5.888;2023-04-16T14:23:55;19.60;;;11.95;;
37641;SDS011;23486;51.956;5.888;2023-04-16T14:26:21;24.02;;;14.02;;
37641;SDS011;23486;51.956;5.888;2023-04-16T14:28:47;24.98;;;14.52;;
37641;SDS011;23486;51.956;5.888;2023-04-16T14:31:12;17.52;;;11.00;;
37641;SDS011;23486;51.956;5.888;2023-04-16T14:33:38;25.23;;;14.35;;
37641;SDS011;23486;51.956;5.888;2023-04-16T14:36:04;23.20;;;13.95;;
37641;SDS011;23486;51.956;5.888;2023-04-16T14:38:30;23.85;;;13.48;;
37641;SDS011;23486;51.956;5.888;2023-04-16T14:40:56;24.50;;;13.05;;